Time;durP1;ratioP1;P1;durP2;ratioP2;P2;SDS_P1;SDS_P2;PMS_P1;PMS_P2;Temp;Humidity;BMP_temperature;BMP_pressure;BME280_temperature;BME280_humidity;BME280_pressure;Samples;Min_cycle;Max_cycle;Signal;HPM_P1;HPM_P2
2022/08/25 00:00:23;;;;;;;21.10;19.15;;;22.00;99.90;;;;;;5013313;28;20191;-78
2022/08/25 00:02:50;;;;;;;16.88;15.18;;;22.00;99.90;;;;;;5013904;28;20227;-80
2022/08/25 00:05:18;;;;;;;16.02;14.52;;;21.90;99.90;;;;;;5029989;28;20591;-77
2022/08/25 00:07:45;;;;;;;19.20;17.40;;;21.90;99.90;;;;;;5032935;28;20213;-78
2022/08/25 00:10:12;;;;;;;15.88;14.40;;;21.90;99.90;;;;;;5037652;28;20216;-82
2022/08/25 00:12:39;;;;;;;14.57;13.30;;;21.80;99.90;;;;;;5038750;28;20290;-82
2022/08/25 00:15:08;;;;;;;20.55;18.52;;;21.90;99.90;;;;;;5037579;28;20201;-84
2022/08/25 00:17:35;;;;;;;17.35;15.68;;;21.80;99.90;;;;;;5037133;28;20643;-81
2022/08/25 00:20:02;;;;;;;17.27;15.57;;;21.80;99.90;;;;;;5029511;28;20348;-82
2022/08/25 00:22:30;;;;;;;13.73;12.43;;;21.70;99.90;;;;;;5020515;28;20219;-77
2022/08/25 00:24:57;;;;;;;15.02;13.63;;;21.70;99.90;;;;;;5012752;28;20195;-77
2022/08/25 00:27:24;;;;;;;17.65;16.05;;;21.70;99.90;;;;;;5012851;28;20231;-77
2022/08/25 00:29:51;;;;;;;16.45;14.50;;;21.70;99.90;;;;;;5012851;28;20203;-76
2022/08/25 00:32:18;;;;;;;15.10;13.73;;;21.70;99.90;;;;;;5012508;28;20222;-76
2022/08/25 00:34:46;;;;;;;22.00;19.75;;;21.60;99.90;;;;;;5012708;28;20226;-76
2022/08/25 00:37:14;;;;;;;17.90;16.30;;;21.60;99.90;;;;;;5013500;28;20508;-77
2022/08/25 00:39:42;;;;;;;17.70;16.10;;;21.60;99.90;;;;;;5014285;28;20227;-78
2022/08/25 00:42:11;;;;;;;14.88;13.48;;;21.60;99.90;;;;;;5015199;28;20223;-81
2022/08/25 00:44:38;;;;;;;25.52;23.00;;;21.50;99.90;;;;;;5023240;28;20677;-84
2022/08/25 00:47:07;;;;;;;21.38;19.38;;;21.50;99.90;;;;;;5021046;28;20206;-83
2022/08/25 00:49:38;;;;;;;15.55;14.15;;;21.50;99.90;;;;;;5013204;28;20206;-78
2022/08/25 00:52:09;;;;;;;22.10;20.17;;;21.50;99.90;;;;;;5013218;28;20231;-78
2022/08/25 00:54:39;;;;;;;17.00;15.00;;;21.50;99.90;;;;;;5013486;28;20191;-81
2022/08/25 00:57:11;;;;;;;20.02;18.08;;;21.40;99.90;;;;;;5013634;28;20294;-78
2022/08/25 00:59:39;;;;;;;19.65;17.63;;;21.40;99.90;;;;;;5013359;28;20446;-79
2022/08/25 01:02:08;;;;;;;15.68;14.20;;;21.30;99.90;;;;;;5013327;28;20234;-83
2022/08/25 01:04:36;;;;;;;21.60;19.77;;;21.30;99.90;;;;;;5026198;28;20525;-83
2022/08/25 01:07:05;;;;;;;19.38;17.48;;;21.30;99.90;;;;;;5032849;28;20488;-83
2022/08/25 01:09:32;;;;;;;19.67;17.67;;;21.30;99.90;;;;;;5034916;28;20312;-83
2022/08/25 01:11:59;;;;;;;20.33;18.58;;;21.30;99.90;;;;;;5037266;28;20205;-78
2022/08/25 01:14:30;;;;;;;20.75;18.75;;;21.30;99.90;;;;;;5032950;28;20202;-79
2022/08/25 01:16:58;;;;;;;22.92;20.75;;;21.30;99.90;;;;;;5016059;28;20199;-78
2022/08/25 01:19:26;;;;;;;19.52;17.83;;;21.30;99.90;;;;;;5016483;28;20198;-80
2022/08/25 01:21:54;;;;;;;19.30;17.50;;;21.20;99.90;;;;;;5015693;28;20236;-78
2022/08/25 01:24:30;;;;;;;18.73;16.95;;;21.20;99.90;;;;;;5016204;28;20210;-76
2022/08/25 01:26:57;;;;;;;19.00;17.30;;;21.20;99.90;;;;;;5015774;28;20225;-81
2022/08/25 01:29:25;;;;;;;24.40;21.92;;;21.20;99.90;;;;;;5016143;28;20203;-83
2022/08/25 01:31:56;;;;;;;20.65;18.73;;;21.10;99.90;;;;;;5016204;28;20258;-78
2022/08/25 01:34:24;;;;;;;18.77;17.17;;;21.10;99.90;;;;;;5015111;28;20223;-78
2022/08/25 01:36:51;;;;;;;19.38;17.27;;;21.10;99.90;;;;;;5015699;28;20240;-79
2022/08/25 01:39:20;;;;;;;24.88;22.63;;;21.10;99.90;;;;;;5016206;28;20205;-80
2022/08/25 01:42:03;;;;;;;25.50;22.92;;;21.00;99.90;;;;;;5015379;28;20229;-77
2022/08/25 01:44:31;;;;;;;27.42;24.92;;;21.00;99.90;;;;;;5019762;28;20198;-77
2022/08/25 01:47:01;;;;;;;22.27;20.30;;;21.00;99.90;;;;;;5035681;28;20199;-77
2022/08/25 01:49:28;;;;;;;22.30;20.13;;;21.00;99.90;;;;;;5034715;28;20627;-84
2022/08/25 01:51:59;;;;;;;28.73;26.08;;;21.00;99.90;;;;;;5036361;28;20294;-82
2022/08/25 01:54:28;;;;;;;23.67;21.33;;;21.00;99.90;;;;;;5019063;28;20299;-84
2022/08/25 01:56:54;;;;;;;24.38;22.13;;;21.00;99.90;;;;;;5016402;28;20201;-83
2022/08/25 01:59:22;;;;;;;24.58;22.30;;;21.00;99.90;;;;;;5016302;28;20588;-81
2022/08/25 02:01:49;;;;;;;24.27;22.17;;;21.00;99.90;;;;;;5016866;28;20207;-82
2022/08/25 02:04:16;;;;;;;23.33;21.17;;;21.00;99.90;;;;;;5016428;28;20195;-83
2022/08/25 02:06:43;;;;;;;31.98;29.00;;;21.00;99.90;;;;;;5015788;28;20207;-77
2022/08/25 02:09:13;;;;;;;25.67;23.30;;;21.00;99.90;;;;;;5016094;28;20239;-82
2022/08/25 02:11:45;;;;;;;28.05;25.45;;;21.00;99.90;;;;;;5015313;28;20579;-77
2022/08/25 02:14:13;;;;;;;23.55;21.23;;;21.00;99.90;;;;;;5015580;28;20199;-82
2022/08/25 02:16:41;;;;;;;28.15;25.17;;;21.00;99.90;;;;;;5014349;28;20195;-82
2022/08/25 02:19:11;;;;;;;22.00;19.75;;;21.00;99.90;;;;;;5015288;28;20206;-77
2022/08/25 02:21:39;;;;;;;23.30;21.08;;;21.00;99.90;;;;;;5014681;28;20203;-78
2022/08/25 02:24:07;;;;;;;17.55;15.80;;;21.00;99.90;;;;;;5013909;28;20211;-77
2022/08/25 02:26:35;;;;;;;22.42;20.23;;;20.90;99.90;;;;;;5016596;28;20225;-83
2022/08/25 02:29:04;;;;;;;25.70;23.40;;;20.90;99.90;;;;;;5016002;28;20205;-82
2022/08/25 02:31:31;;;;;;;21.65;19.45;;;20.80;99.90;;;;;;5016074;28;20298;-83
2022/08/25 02:33:57;;;;;;;15.85;14.50;;;20.80;99.90;;;;;;5016227;28;20638;-82
2022/08/25 02:36:24;;;;;;;22.70;20.70;;;20.80;99.90;;;;;;5015776;28;20203;-82
2022/08/25 02:38:52;;;;;;;21.08;19.20;;;20.80;99.90;;;;;;5015561;28;20273;-81
2022/08/25 02:41:22;;;;;;;20.77;18.92;;;20.70;99.90;;;;;;5016503;28;20199;-83
2022/08/25 02:43:50;;;;;;;20.65;18.75;;;20.70;99.90;;;;;;5015961;28;20223;-80
2022/08/25 02:46:20;;;;;;;17.33;15.82;;;20.70;99.90;;;;;;5015382;28;20295;-82
2022/08/25 02:48:48;;;;;;;19.58;17.88;;;20.70;99.90;;;;;;5015701;28;20203;-83
2022/08/25 02:51:15;;;;;;;18.92;17.08;;;20.60;99.90;;;;;;5016019;28;20592;-80
2022/08/25 02:53:44;;;;;;;34.80;31.13;;;20.60;99.90;;;;;;5015712;28;20199;-80
2022/08/25 02:56:13;;;;;;;31.17;28.02;;;20.60;99.90;;;;;;5015786;28;20203;-83
2022/08/25 02:58:41;;;;;;;26.90;24.25;;;20.60;99.90;;;;;;5015475;28;20584;-83
2022/08/25 03:01:10;;;;;;;29.08;26.23;;;20.60;99.90;;;;;;5015042;28;20206;-81
2022/08/25 03:03:40;;;;;;;24.05;21.60;;;20.60;99.90;;;;;;5015688;28;20565;-83
2022/08/25 03:06:08;;;;;;;26.88;24.17;;;20.60;99.90;;;;;;5014942;28;20257;-83
2022/08/25 03:08:35;;;;;;;25.83;23.52;;;20.60;99.90;;;;;;5015116;28;20235;-83
2022/08/25 03:11:03;;;;;;;19.58;17.88;;;20.60;99.90;;;;;;5015582;28;20526;-82
2022/08/25 03:13:31;;;;;;;21.70;19.90;;;20.50;99.90;;;;;;5015030;28;20484;-82
2022/08/25 03:15:58;;;;;;;24.55;22.30;;;20.50;99.90;;;;;;5015301;28;20199;-83
2022/08/25 03:18:25;;;;;;;22.05;19.98;;;20.50;99.90;;;;;;5014349;28;20377;-77
2022/08/25 03:20:53;;;;;;;21.70;19.63;;;20.40;99.90;;;;;;5013301;28;20199;-81
2022/08/25 03:23:20;;;;;;;18.45;16.95;;;20.40;99.90;;;;;;5014584;28;20219;-82
2022/08/25 03:28:32;;;;;;;25.70;23.08;;;20.30;99.90;;;;;;5014838;28;20259;-82
2022/08/25 03:30:59;;;;;;;26.23;23.85;;;20.30;99.90;;;;;;5015260;28;20215;-83
2022/08/25 03:33:26;;;;;;;23.35;21.25;;;20.30;99.90;;;;;;5014693;28;20219;-83
2022/08/25 03:35:55;;;;;;;19.42;17.52;;;20.30;99.90;;;;;;5014020;28;20249;-83
2022/08/25 03:38:22;;;;;;;20.23;18.33;;;20.30;99.90;;;;;;5014063;28;20219;-83
2022/08/25 03:40:50;;;;;;;27.90;25.35;;;20.30;99.90;;;;;;5013698;28;20191;-83
2022/08/25 03:43:17;;;;;;;21.83;19.92;;;20.20;99.90;;;;;;5031936;28;20223;-84
2022/08/25 03:45:46;;;;;;;22.08;20.02;;;20.20;99.90;;;;;;5034604;28;20290;-83
2022/08/25 03:48:14;;;;;;;24.80;22.55;;;20.20;99.90;;;;;;5014436;28;20211;-82
2022/08/25 03:50:45;;;;;;;21.17;19.27;;;20.20;99.90;;;;;;5014387;28;20199;-81
2022/08/25 03:53:13;;;;;;;20.63;18.88;;;20.20;99.90;;;;;;5014156;28;20207;-82
2022/08/25 03:55:40;;;;;;;17.52;16.02;;;20.20;99.90;;;;;;5012418;28;20202;-82
2022/08/25 03:58:07;;;;;;;24.70;22.50;;;20.10;99.90;;;;;;5014085;28;20207;-78
2022/08/25 04:00:35;;;;;;;23.75;21.65;;;20.10;99.90;;;;;;5012999;28;20203;-77
2022/08/25 04:03:02;;;;;;;25.33;22.90;;;20.10;99.90;;;;;;5012199;28;20222;-77
2022/08/25 04:05:28;;;;;;;19.95;18.10;;;20.10;99.90;;;;;;5012861;28;20202;-77
2022/08/25 04:07:55;;;;;;;20.73;18.92;;;20.10;99.90;;;;;;5012747;28;20241;-77
2022/08/25 04:10:24;;;;;;;24.85;22.27;;;20.10;99.90;;;;;;5012792;28;20199;-79
2022/08/25 04:12:51;;;;;;;24.35;22.15;;;20.00;99.90;;;;;;5013197;28;20203;-77
2022/08/25 04:15:18;;;;;;;24.25;22.02;;;20.00;99.90;;;;;;5013699;28;20286;-78
2022/08/25 04:17:45;;;;;;;25.38;23.17;;;20.00;99.90;;;;;;5012222;28;20639;-78
2022/08/25 04:20:12;;;;;;;24.35;22.08;;;20.00;99.90;;;;;;5021243;28;20217;-79
2022/08/25 04:22:39;;;;;;;23.52;21.33;;;20.00;99.90;;;;;;5032874;28;20224;-82
2022/08/25 04:25:07;;;;;;;22.23;20.25;;;20.00;99.90;;;;;;5016959;28;20223;-79
2022/08/25 04:27:36;;;;;;;22.85;20.88;;;20.00;99.90;;;;;;5013643;28;20210;-83
2022/08/25 04:30:05;;;;;;;24.55;22.40;;;20.00;99.90;;;;;;5014013;28;20203;-82
2022/08/25 04:32:32;;;;;;;29.85;27.08;;;20.00;99.90;;;;;;5013294;28;20221;-81
2022/08/25 04:34:59;;;;;;;22.75;20.80;;;20.00;99.90;;;;;;5013699;28;20199;-75
2022/08/25 04:37:26;;;;;;;20.77;18.83;;;20.00;99.90;;;;;;5013095;28;20503;-78
2022/08/25 04:39:52;;;;;;;20.23;18.35;;;20.00;99.90;;;;;;5013067;28;20604;-82
2022/08/25 04:42:20;;;;;;;22.77;20.65;;;20.00;99.90;;;;;;5012918;28;20246;-78
2022/08/25 04:44:48;;;;;;;22.17;20.27;;;19.90;99.90;;;;;;5011558;28;20222;-78
2022/08/25 04:47:15;;;;;;;20.38;18.50;;;19.90;99.90;;;;;;5013416;28;20199;-80
2022/08/25 04:49:42;;;;;;;21.83;19.85;;;19.90;99.90;;;;;;5013281;28;20207;-83
2022/08/25 04:52:09;;;;;;;23.67;21.45;;;19.90;99.90;;;;;;5013163;28;20298;-83
2022/08/25 04:54:36;;;;;;;17.92;16.42;;;19.90;99.90;;;;;;5013186;28;20277;-78
2022/08/25 04:57:04;;;;;;;18.77;16.98;;;19.90;99.90;;;;;;5032386;28;20518;-80
2022/08/25 04:59:30;;;;;;;18.65;17.10;;;19.90;99.90;;;;;;5029624;28;20202;-80
2022/08/25 05:02:01;;;;;;;17.83;16.23;;;19.90;99.90;;;;;;5012103;28;20291;-83
2022/08/25 05:04:27;;;;;;;20.17;18.40;;;19.80;99.90;;;;;;5012395;28;20695;-78
2022/08/25 05:06:54;;;;;;;17.80;16.05;;;19.80;99.90;;;;;;5012053;28;20606;-77
2022/08/25 05:09:21;;;;;;;20.58;18.55;;;19.80;99.90;;;;;;5012466;28;20331;-77
2022/08/25 05:11:48;;;;;;;19.02;17.33;;;19.80;99.90;;;;;;5011964;28;20207;-79
2022/08/25 05:14:20;;;;;;;19.40;17.67;;;19.80;99.90;;;;;;5010871;28;20199;-77
2022/08/25 05:16:47;;;;;;;23.17;20.98;;;19.80;99.90;;;;;;5011721;28;20214;-79
2022/08/25 05:19:16;;;;;;;21.13;19.20;;;19.90;99.90;;;;;;5011169;28;20546;-77
2022/08/25 05:21:42;;;;;;;17.35;15.85;;;19.90;99.90;;;;;;5012567;28;20203;-81
2022/08/25 05:24:09;;;;;;;20.73;18.95;;;19.90;99.90;;;;;;5012479;28;20231;-78
2022/08/25 05:26:37;;;;;;;18.65;16.90;;;19.90;99.90;;;;;;5012584;28;20306;-82
2022/08/25 05:29:05;;;;;;;19.85;17.95;;;19.90;99.90;;;;;;5012571;28;20217;-81
2022/08/25 05:31:32;;;;;;;18.35;16.40;;;19.90;99.90;;;;;;5012558;28;20281;-81
2022/08/25 05:33:59;;;;;;;17.77;16.27;;;19.90;99.90;;;;;;5012244;28;20623;-77
2022/08/25 05:36:29;;;;;;;16.35;14.93;;;20.00;99.90;;;;;;5012914;28;20195;-76
2022/08/25 05:38:56;;;;;;;16.30;14.77;;;20.00;99.90;;;;;;5012718;28;20229;-80
2022/08/25 05:41:28;;;;;;;17.60;15.88;;;20.00;99.90;;;;;;5012218;28;20281;-78
2022/08/25 05:43:55;;;;;;;14.73;13.25;;;20.00;99.90;;;;;;5012355;28;20235;-77
2022/08/25 05:46:23;;;;;;;18.48;16.65;;;20.10;99.90;;;;;;5012802;28;20318;-79
2022/08/25 05:48:50;;;;;;;18.60;16.98;;;20.00;99.90;;;;;;5011356;28;20212;-78
2022/08/25 05:51:17;;;;;;;13.82;12.48;;;20.10;99.90;;;;;;5022903;28;20199;-82
2022/08/25 05:53:47;;;;;;;15.55;14.25;;;20.10;99.90;;;;;;5033110;28;20368;-82
2022/08/25 05:56:15;;;;;;;15.38;13.80;;;20.10;99.90;;;;;;5034689;28;20187;-82
2022/08/25 05:58:42;;;;;;;13.07;11.82;;;20.20;99.90;;;;;;5016534;28;20206;-82
2022/08/25 06:04:02;;;;;;;14.25;12.85;;;20.20;99.90;;;;;;5016250;28;20222;-82
2022/08/25 06:06:29;;;;;;;13.05;11.88;;;20.20;99.90;;;;;;5016004;28;20302;-82
2022/08/25 06:08:57;;;;;;;13.23;12.05;;;20.20;99.90;;;;;;5015640;28;20673;-82
2022/08/25 06:11:24;;;;;;;12.23;11.00;;;20.20;99.90;;;;;;5016416;28;20282;-82
2022/08/25 06:13:51;;;;;;;13.48;12.10;;;20.30;99.90;;;;;;5016219;28;20199;-80
2022/08/25 06:16:17;;;;;;;8.70;8.00;;;20.30;99.90;;;;;;5015496;28;20191;-82
2022/08/25 06:18:45;;;;;;;10.57;9.60;;;20.30;99.90;;;;;;5016503;28;20514;-83
2022/08/25 06:21:13;;;;;;;11.68;10.35;;;20.40;99.90;;;;;;5015696;28;20195;-80
2022/08/25 06:23:40;;;;;;;9.48;8.60;;;20.30;99.90;;;;;;5014920;28;20223;-83
2022/08/25 06:26:10;;;;;;;9.35;8.40;;;20.40;99.90;;;;;;5015970;28;20199;-83
2022/08/25 06:28:37;;;;;;;11.32;9.40;;;20.40;99.90;;;;;;5016268;28;20571;-82
2022/08/25 06:31:04;;;;;;;8.98;8.07;;;20.50;99.90;;;;;;5014922;28;20203;-80
2022/08/25 06:33:32;;;;;;;9.85;8.85;;;20.50;99.90;;;;;;5016172;28;20226;-83
2022/08/25 06:35:59;;;;;;;9.15;8.25;;;20.60;99.90;;;;;;5016054;28;20221;-82
2022/08/25 06:38:27;;;;;;;9.75;8.70;;;20.60;99.90;;;;;;5015265;28;20234;-82
2022/08/25 06:40:55;;;;;;;8.88;8.02;;;20.70;99.90;;;;;;5015872;28;20241;-82
2022/08/25 06:43:24;;;;;;;11.15;9.73;;;20.70;99.90;;;;;;5015447;28;20219;-82
2022/08/25 06:45:51;;;;;;;10.30;9.38;;;20.70;99.90;;;;;;5015727;28;20566;-80
2022/08/25 06:48:18;;;;;;;9.20;7.30;;;20.80;99.90;;;;;;5015688;28;20230;-82
2022/08/25 06:50:47;;;;;;;8.23;7.38;;;20.90;99.90;;;;;;5020762;28;20207;-82
2022/08/25 06:53:14;;;;;;;7.88;6.97;;;20.90;99.90;;;;;;5029304;28;20190;-82
2022/08/25 06:55:42;;;;;;;7.18;6.18;;;21.00;99.90;;;;;;5035709;28;20291;-83
2022/08/25 06:58:09;;;;;;;8.32;6.78;;;21.10;99.90;;;;;;5034234;28;20222;-83
2022/08/25 07:00:37;;;;;;;8.30;7.53;;;21.10;99.90;;;;;;5034862;28;20206;-82
2022/08/25 07:03:04;;;;;;;7.07;6.18;;;21.30;99.90;;;;;;5015926;28;20507;-85
2022/08/25 07:05:31;;;;;;;7.47;6.10;;;21.40;99.90;;;;;;5015147;28;20233;-84
2022/08/25 07:07:58;;;;;;;8.10;7.28;;;21.60;99.90;;;;;;5014090;28;20880;-83
2022/08/25 07:10:27;;;;;;;9.05;6.78;;;21.70;99.90;;;;;;5030525;28;20716;-83
2022/08/25 07:12:54;;;;;;;10.30;7.22;;;21.90;99.90;;;;;;5040422;28;20223;-82
2022/08/25 07:15:21;;;;;;;6.85;6.15;;;22.10;99.90;;;;;;5033218;28;20237;-83
2022/08/25 07:17:49;;;;;;;12.32;6.32;;;22.20;99.90;;;;;;5037815;28;20818;-82
2022/08/25 07:20:17;;;;;;;7.00;5.55;;;22.40;99.90;;;;;;5040548;28;20210;-82
2022/08/25 07:22:44;;;;;;;12.70;6.22;;;22.60;99.90;;;;;;5038585;28;20215;-83
2022/08/25 07:25:11;;;;;;;9.05;5.35;;;22.80;99.90;;;;;;5039324;28;20233;-82
2022/08/25 07:27:39;;;;;;;8.25;4.60;;;23.00;99.90;;;;;;5037719;28;20278;-82
2022/08/25 07:30:08;;;;;;;9.98;5.90;;;23.10;99.90;;;;;;5034675;28;20245;-81
2022/08/25 07:32:35;;;;;;;7.47;4.95;;;23.30;99.90;;;;;;5029105;28;20215;-82
2022/08/25 07:35:15;;;;;;;6.93;4.60;;;23.60;99.90;;;;;;5042474;28;20216;-83
2022/08/25 07:37:43;;;;;;;6.57;4.18;;;23.90;99.90;;;;;;5053296;28;20213;-83
2022/08/25 07:40:13;;;;;;;5.53;4.50;;;24.10;99.90;;;;;;5018314;28;20607;-81
2022/08/25 07:42:40;;;;;;;7.63;4.22;;;24.40;99.90;;;;;;5013667;28;20599;-83
2022/08/25 07:45:09;;;;;;;9.40;4.53;;;24.60;99.90;;;;;;5014311;28;20286;-83
2022/08/25 07:47:36;;;;;;;6.38;4.40;;;24.80;99.90;;;;;;5013630;28;20686;-78
2022/08/25 07:50:06;;;;;;;6.85;4.20;;;25.00;99.90;;;;;;5013524;28;20223;-81
2022/08/25 07:52:33;;;;;;;7.07;4.03;;;25.20;99.90;;;;;;5013380;28;20211;-83
2022/08/25 07:55:00;;;;;;;5.57;3.50;;;25.50;99.90;;;;;;5013687;28;20203;-83
2022/08/25 07:57:28;;;;;;;6.65;3.28;;;25.70;99.90;;;;;;5014301;28;20260;-81
2022/08/25 07:59:55;;;;;;;5.55;3.40;;;26.00;99.90;;;;;;5014152;28;20386;-82
2022/08/25 08:02:22;;;;;;;6.65;3.20;;;26.20;99.90;;;;;;5013808;28;20210;-83
2022/08/25 08:04:50;;;;;;;10.77;4.30;;;26.50;99.90;;;;;;5015613;28;20237;-83
2022/08/25 08:07:21;;;;;;;4.40;3.00;;;26.70;99.90;;;;;;5033554;28;20432;-83
2022/08/25 08:09:48;;;;;;;7.25;3.33;;;26.90;99.90;;;;;;5022330;28;20235;-82
2022/08/25 08:12:15;;;;;;;4.25;3.40;;;27.10;99.90;;;;;;5013929;28;20514;-84
2022/08/25 08:14:42;;;;;;;5.82;3.35;;;27.30;99.90;;;;;;5027888;28;20285;-83
2022/08/25 08:17:10;;;;;;;5.93;2.85;;;27.50;99.90;;;;;;5033984;28;20201;-85
2022/08/25 08:19:37;;;;;;;4.57;3.00;;;27.70;99.90;;;;;;5034015;28;20484;-84
2022/08/25 08:22:05;;;;;;;4.75;2.75;;;27.80;99.90;;;;;;5018142;28;20565;-84
2022/08/25 08:24:37;;;;;;;5.80;2.85;;;28.00;99.90;;;;;;5014963;28;20225;-84
2022/08/25 08:27:05;;;;;;;5.63;2.80;;;28.20;99.90;;;;;;5033729;28;20209;-83
2022/08/25 08:29:32;;;;;;;8.10;3.20;;;28.50;99.90;;;;;;5033180;28;20221;-84
2022/08/25 08:31:59;;;;;;;4.50;2.78;;;28.60;99.90;;;;;;5034383;28;20950;-85
2022/08/25 08:34:26;;;;;;;5.50;3.08;;;28.80;99.90;;;;;;5021087;28;20231;-84
2022/08/25 08:36:53;;;;;;;5.10;3.10;;;28.90;99.90;;;;;;5013251;28;20217;-83
2022/08/25 08:39:19;;;;;;;4.93;2.92;;;29.20;99.90;;;;;;5014262;28;20203;-84
2022/08/25 08:42:18;;;;;;;4.63;2.88;;;29.40;99.90;;;;;;5013433;28;20196;-83
2022/08/25 08:45:15;;;;;;;7.60;3.55;;;29.60;99.90;;;;;;5015763;28;20219;-84
2022/08/25 08:48:04;;;;;;;12.65;3.55;;;29.60;99.90;;;;;;5052944;28;20229;-83
2022/08/25 08:50:39;;;;;;;6.53;2.60;;;29.60;99.90;;;;;;5018544;28;20199;-80
2022/08/25 08:53:11;;;;;;;4.13;2.63;;;29.60;99.90;;;;;;5013458;28;20195;-83
2022/08/25 08:55:42;;;;;;;4.57;2.67;;;29.70;99.90;;;;;;5013554;28;20569;-84
2022/08/25 08:58:17;;;;;;;6.90;2.90;;;29.90;99.90;;;;;;5032660;28;20241;-84
2022/08/25 09:00:47;;;;;;;7.97;3.20;;;30.00;99.90;;;;;;5032085;28;20192;-83
2022/08/25 09:03:25;;;;;;;7.88;3.10;;;30.20;99.90;;;;;;5033390;23;20273;-83
2022/08/25 09:05:55;;;;;;;4.53;2.65;;;30.40;99.90;;;;;;5052089;28;20230;-82
2022/08/25 09:08:22;;;;;;;5.45;3.00;;;30.50;99.90;;;;;;5052567;28;20190;-84
2022/08/25 09:11:01;;;;;;;6.78;3.13;;;30.50;99.90;;;;;;5046765;28;20194;-80
2022/08/25 09:13:38;;;;;;;4.85;2.53;;;30.60;99.90;;;;;;5032368;28;20210;-82
2022/08/25 09:19:11;;;;;;;5.55;2.85;;;30.60;99.90;;;;;;5037898;28;20190;-83
2022/08/25 09:21:45;;;;;;;4.47;2.60;;;30.80;99.90;;;;;;5033031;28;20194;-81
2022/08/25 09:24:37;;;;;;;4.47;2.70;;;30.80;99.90;;;;;;5032708;28;20217;-83
2022/08/25 09:27:14;;;;;;;5.13;2.50;;;31.10;99.90;;;;;;5032317;28;20575;-83
2022/08/25 09:29:57;;;;;;;4.25;2.50;;;31.20;99.90;;;;;;5032374;28;20201;-84
2022/08/25 09:32:25;;;;;;;3.20;2.45;;;31.20;99.90;;;;;;5035433;28;20482;-82
2022/08/25 09:34:54;;;;;;;8.38;2.78;;;31.30;99.90;;;;;;5036113;28;20187;-83
2022/08/25 09:37:23;;;;;;;4.90;2.25;;;31.40;99.90;;;;;;5036187;28;20210;-78
2022/08/25 09:39:51;;;;;;;6.43;2.65;;;31.60;99.90;;;;;;5041067;28;20869;-79
2022/08/25 09:42:19;;;;;;;5.45;2.38;;;31.50;99.90;;;;;;5040245;28;20601;-79
2022/08/25 09:44:48;;;;;;;7.95;2.35;;;31.60;99.90;;;;;;5046139;28;20226;-79
2022/08/25 09:47:22;;;;;;;3.50;2.40;;;31.30;99.90;;;;;;5036809;28;20618;-78
2022/08/25 09:49:51;;;;;;;4.03;2.50;;;31.20;99.90;;;;;;5044414;28;20207;-81
2022/08/25 09:52:31;;;;;;;3.65;2.50;;;31.20;99.90;;;;;;5047076;28;20677;-80
2022/08/25 09:55:01;;;;;;;5.05;2.15;;;31.30;99.90;;;;;;5059232;28;20186;-82
2022/08/25 09:57:32;;;;;;;5.20;2.30;;;31.20;99.90;;;;;;5059549;28;20281;-80
2022/08/25 10:00:13;;;;;;;3.90;1.92;;;31.20;99.90;;;;;;5057190;28;20201;-84
2022/08/25 10:02:39;;;;;;;9.55;2.67;;;31.10;99.90;;;;;;5056363;28;20196;-82
2022/08/25 10:05:20;;;;;;;4.88;2.30;;;31.00;99.90;;;;;;5057583;28;20226;-81
2022/08/25 10:07:54;;;;;;;2.65;2.20;;;30.80;99.90;;;;;;5045675;28;20292;-80
2022/08/25 10:10:29;;;;;;;8.13;2.63;;;30.60;99.90;;;;;;5036479;28;20206;-82
2022/08/25 10:12:59;;;;;;;2.78;2.25;;;30.60;99.90;;;;;;5035122;28;20194;-78
2022/08/25 10:15:31;;;;;;;4.05;2.45;;;30.40;99.90;;;;;;5035031;28;20241;-79
2022/08/25 10:18:20;;;;;;;6.25;2.40;;;30.30;99.90;;;;;;5056263;28;20646;-86
2022/08/25 10:21:01;;;;;;;6.03;2.15;;;30.20;99.90;;;;;;5056527;28;20197;-83
2022/08/25 10:23:29;;;;;;;7.05;1.95;;;30.10;99.90;;;;;;5055123;28;20194;-85
2022/08/25 10:25:59;;;;;;;2.83;2.58;;;30.20;99.90;;;;;;5055895;28;20625;-84
2022/08/25 10:28:33;;;;;;;3.95;2.30;;;30.10;99.90;;;;;;5052048;28;20337;-82
2022/08/25 10:31:10;;;;;;;3.58;2.45;;;30.30;99.90;;;;;;5036224;28;20229;-83
2022/08/25 10:33:51;;;;;;;4.13;2.30;;;30.60;99.90;;;;;;5037098;28;20249;-85
2022/08/25 10:36:21;;;;;;;3.58;2.03;;;31.10;99.90;;;;;;5034321;28;20190;-77
2022/08/25 10:38:54;;;;;;;3.25;2.40;;;31.50;99.90;;;;;;5034377;28;20198;-77
2022/08/25 10:41:35;;;;;;;4.38;2.30;;;31.70;99.90;;;;;;5049306;28;20661;-78
2022/08/25 10:47:02;;;;;;;4.15;2.03;;;32.20;99.90;;;;;;5034173;28;20236;-78
2022/08/25 10:49:35;;;;;;;4.70;2.05;;;32.40;99.90;;;;;;5034326;28;20194;-80
2022/08/25 10:52:07;;;;;;;3.35;2.40;;;32.50;99.90;;;;;;5034151;28;20270;-80
2022/08/25 10:54:46;;;;;;;3.60;2.22;;;32.50;99.90;;;;;;5034397;28;20205;-77
2022/08/25 10:57:22;;;;;;;4.78;2.53;;;32.70;99.90;;;;;;5049515;28;20209;-78
2022/08/25 10:59:56;;;;;;;3.15;2.10;;;32.80;99.90;;;;;;5043416;28;20285;-78
2022/08/25 11:03:10;;;;;;;4.80;2.28;;;32.90;99.90;;;;;;5034080;28;20194;-77
2022/08/25 11:05:43;;;;;;;3.95;2.47;;;32.90;99.90;;;;;;5030080;28;20227;-83
2022/08/25 11:08:15;;;;;;;2.92;2.08;;;32.90;99.90;;;;;;5034890;28;20199;-83
2022/08/25 11:10:47;;;;;;;4.20;2.55;;;33.00;99.90;;;;;;5033030;28;20206;-77
2022/08/25 11:13:20;;;;;;;3.13;2.40;;;33.10;99.90;;;;;;5034047;28;20542;-79
2022/08/25 11:15:54;;;;;;;4.20;2.70;;;33.40;99.90;;;;;;5050586;28;20206;-77
2022/08/25 11:18:22;;;;;;;6.43;2.28;;;33.50;99.90;;;;;;5053329;28;20669;-84
2022/08/25 11:20:59;;;;;;;5.78;2.65;;;33.60;99.90;;;;;;5042611;28;20300;-83
2022/08/25 11:23:31;;;;;;;6.00;2.47;;;33.80;99.90;;;;;;5034938;28;20194;-84
2022/08/25 11:26:04;;;;;;;2.17;1.80;;;33.80;99.90;;;;;;5034967;28;20206;-86
2022/08/25 11:28:35;;;;;;;3.60;2.05;;;33.80;99.90;;;;;;5034333;28;20223;-83
2022/08/25 11:31:04;;;;;;;4.78;2.20;;;33.90;99.90;;;;;;5034825;28;20200;-81
2022/08/25 11:33:32;;;;;;;3.78;2.20;;;34.20;99.90;;;;;;5044057;28;20233;-82
2022/08/25 11:36:05;;;;;;;4.90;2.20;;;34.30;99.90;;;;;;5054399;28;20229;-83
2022/08/25 11:38:45;;;;;;;2.58;2.28;;;34.50;99.90;;;;;;5047731;28;20209;-85
2022/08/25 11:41:24;;;;;;;2.05;1.83;;;34.20;99.90;;;;;;5034808;28;20286;-83
2022/08/25 11:44:19;;;;;;;3.67;2.10;;;34.10;99.90;;;;;;5034359;28;20194;-83
2022/08/25 11:47:00;;;;;;;3.42;2.20;;;33.80;99.90;;;;;;5033853;28;20206;-81
2022/08/25 11:49:50;;;;;;;2.83;2.13;;;33.60;99.90;;;;;;5034997;28;20194;-83
2022/08/25 11:52:50;;;;;;;3.35;2.28;;;33.20;99.90;;;;;;5034522;28;20199;-83
2022/08/25 11:55:21;;;;;;;5.70;1.95;;;33.00;99.90;;;;;;5034380;28;20205;-83
2022/08/25 11:57:51;;;;;;;3.47;2.08;;;32.90;99.90;;;;;;5034468;28;20206;-84
2022/08/25 12:00:37;;;;;;;2.92;1.90;;;32.70;99.90;;;;;;5033789;28;20213;-83
2022/08/25 12:03:37;;;;;;;4.07;1.90;;;32.80;99.90;;;;;;5033818;28;20333;-87
2022/08/25 12:06:24;;;;;;;2.40;2.08;;;32.80;99.90;;;;;;5034122;28;20218;-84
2022/08/25 12:09:14;;;;;;;2.35;1.75;;;32.80;99.90;;;;;;5033691;28;20281;-85
2022/08/25 12:11:54;;;;;;;6.82;2.75;;;32.90;99.90;;;;;;5050195;28;20198;-84
2022/08/25 12:14:47;;;;;;;4.55;2.72;;;32.90;99.90;;;;;;5033650;28;20289;-84
2022/08/25 12:17:24;;;;;;;5.78;3.17;;;33.00;99.90;;;;;;5034189;28;20175;-87
2022/08/25 12:19:54;;;;;;;6.57;3.10;;;33.10;99.90;;;;;;5043223;28;20196;-80
2022/08/25 12:22:57;;;;;;;5.03;3.17;;;33.20;99.90;;;;;;5046127;28;20214;-85
2022/08/25 12:25:39;;;;;;;4.60;2.63;;;33.40;99.90;;;;;;5033066;28;20218;-84
2022/08/25 12:28:20;;;;;;;6.30;2.83;;;33.60;99.90;;;;;;5032730;28;20194;-84
2022/08/25 12:30:52;;;;;;;4.45;3.38;;;33.60;99.90;;;;;;5032992;28;20186;-83
2022/08/25 12:33:32;;;;;;;4.35;3.20;;;33.60;99.90;;;;;;5033405;28;20462;-82
2022/08/25 12:36:02;;;;;;;4.97;2.90;;;33.60;99.90;;;;;;5033305;28;20194;-84
2022/08/25 12:38:32;;;;;;;8.20;4.00;;;33.70;99.90;;;;;;5033740;28;20630;-85
2022/08/25 12:41:06;;;;;;;4.28;2.90;;;33.70;99.90;;;;;;5033757;28;20202;-87
2022/08/25 12:43:36;;;;;;;8.13;3.65;;;33.70;99.90;;;;;;5034153;28;20190;-86
2022/08/25 12:46:38;;;;;;;4.68;3.28;;;33.70;99.90;;;;;;5032975;28;20309;-81
2022/08/25 12:49:13;;;;;;;5.38;3.40;;;33.70;99.90;;;;;;5032082;28;20214;-83
2022/08/25 12:51:53;;;;;;;5.35;3.13;;;33.60;99.90;;;;;;5033455;28;20248;-87
2022/08/25 12:54:25;;;;;;;4.20;2.78;;;33.60;99.90;;;;;;5033374;28;20263;-84
2022/08/25 12:56:57;;;;;;;3.97;2.80;;;33.60;99.90;;;;;;5033339;28;20189;-81
2022/08/25 12:59:32;;;;;;;5.22;3.05;;;33.60;99.90;;;;;;5032442;28;20229;-83
2022/08/25 13:02:36;;;;;;;6.30;3.60;;;33.60;99.90;;;;;;5031821;28;20186;-82
2022/08/25 13:05:15;;;;;;;10.00;4.90;;;33.80;99.90;;;;;;5045728;28;20201;-82